createdAt,value
2023-02-27T00:00:22.323Z,0.02
2023-02-27T00:02:51.967Z,0.02
2023-02-27T00:05:19.954Z,0.05
2023-02-27T00:07:47.005Z,0.04
2023-02-27T00:10:15.159Z,0.00
2023-02-27T00:12:43.517Z,-0.04
2023-02-27T00:15:19.064Z,-0.06
2023-02-27T00:17:46.465Z,-0.09
2023-02-27T00:20:17.406Z,-0.12
2023-02-27T00:22:45.898Z,-0.14
2023-02-27T00:25:13.667Z,-0.17
2023-02-27T00:27:41.543Z,-0.22
2023-02-27T00:30:12.704Z,-0.28
2023-02-27T00:32:40.415Z,-0.31
2023-02-27T00:35:11.514Z,-0.34
2023-02-27T00:37:39.347Z,-0.34
2023-02-27T00:40:08.250Z,-0.39
2023-02-27T00:42:35.349Z,-0.45
2023-02-27T00:45:04.187Z,-0.50
2023-02-27T00:47:31.818Z,-0.55
2023-02-27T00:49:58.949Z,-0.60
2023-02-27T00:52:26.961Z,-0.62
2023-02-27T00:54:54.230Z,-0.65
2023-02-27T00:57:21.488Z,-0.67
2023-02-27T00:59:48.710Z,-0.67
2023-02-27T01:02:15.663Z,-0.68
2023-02-27T01:04:42.898Z,-0.68
2023-02-27T01:07:10.603Z,-0.69
2023-02-27T01:09:37.961Z,-0.65
2023-02-27T01:12:05.223Z,-0.61
2023-02-27T01:14:32.384Z,-0.62
2023-02-27T01:16:59.365Z,-0.63
2023-02-27T01:19:26.780Z,-0.63
2023-02-27T01:21:53.791Z,-0.63
2023-02-27T01:24:21.927Z,-0.62
2023-02-27T01:26:49.246Z,-0.61
2023-02-27T01:29:16.348Z,-0.61
2023-02-27T01:31:43.416Z,-0.62
2023-02-27T01:34:10.382Z,-0.65
2023-02-27T01:36:37.316Z,-0.64
2023-02-27T01:39:05.012Z,-0.63
2023-02-27T01:41:32.048Z,-0.66
2023-02-27T01:44:09.724Z,-0.68
2023-02-27T01:46:37.294Z,-0.71
2023-02-27T01:49:07.327Z,-0.73
2023-02-27T01:51:41.799Z,-0.76
2023-02-27T01:54:11.479Z,-0.81
2023-02-27T01:56:39.169Z,-0.82
2023-02-27T01:59:09.437Z,-0.83
2023-02-27T02:01:37.229Z,-0.83
2023-02-27T02:04:13.204Z,-0.85
2023-02-27T02:06:44.252Z,-0.84
2023-02-27T02:09:12.722Z,-0.84
2023-02-27T02:11:40.255Z,-0.85
2023-02-27T02:14:10.958Z,-0.83
2023-02-27T02:16:59.924Z,-0.84
2023-02-27T02:19:29.513Z,-0.87
2023-02-27T02:22:23.144Z,-0.90
2023-02-27T02:25:31.023Z,-0.88
2023-02-27T02:28:28.911Z,-0.88
2023-02-27T02:31:38.424Z,-0.87
2023-02-27T02:34:32.853Z,-0.85
2023-02-27T02:37:49.183Z,-0.84
2023-02-27T02:40:19.484Z,-0.85
2023-02-27T02:43:17.904Z,-0.85
2023-02-27T02:46:11.432Z,-0.84
2023-02-27T02:49:14.861Z,-0.83
2023-02-27T02:51:55.740Z,-0.83
2023-02-27T02:54:38.103Z,-0.82
2023-02-27T02:57:21.628Z,-0.80
2023-02-27T03:00:12.300Z,-0.75
2023-02-27T03:02:47.483Z,-0.72
2023-02-27T03:05:23.988Z,-0.68
2023-02-27T03:07:57.604Z,-0.64
2023-02-27T03:10:35.624Z,-0.61
2023-02-27T03:13:31.279Z,-0.59
2023-02-27T03:16:00.951Z,-0.60
2023-02-27T03:18:39.897Z,-0.61
2023-02-27T03:21:21.286Z,-0.64
2023-02-27T03:23:49.502Z,-0.69
2023-02-27T03:26:22.002Z,-0.72
2023-02-27T03:29:20.754Z,-0.77
2023-02-27T03:31:55.631Z,-0.81
2023-02-27T03:34:33.162Z,-0.84
2023-02-27T03:37:50.561Z,-0.87
2023-02-27T03:40:40.013Z,-0.89
2023-02-27T03:43:34.471Z,-0.91
2023-02-27T03:46:16.584Z,-0.96
2023-02-27T03:48:45.268Z,-0.99
2023-02-27T03:51:20.137Z,-1.01
2023-02-27T03:54:14.920Z,-1.04
2023-02-27T03:56:49.989Z,-1.06
2023-02-27T03:59:17.486Z,-1.07
2023-02-27T04:01:45.046Z,-1.08
2023-02-27T04:04:16.824Z,-1.09
2023-02-27T04:07:16.078Z,-1.14
2023-02-27T04:09:54.802Z,-1.22
2023-02-27T04:12:38.169Z,-1.25
2023-02-27T04:15:24.494Z,-1.26
2023-02-27T04:18:44.640Z,-1.30
2023-02-27T04:21:32.515Z,-1.35
2023-02-27T04:24:13.753Z,-1.39
2023-02-27T04:26:48.148Z,-1.41
2023-02-27T04:29:27.627Z,-1.43
2023-02-27T04:32:30.021Z,-1.46
2023-02-27T04:35:13.536Z,-1.51
2023-02-27T04:38:32.396Z,-1.53
2023-02-27T04:41:13.189Z,-1.51
2023-02-27T04:43:42.128Z,-1.52
2023-02-27T04:46:14.280Z,-1.51
2023-02-27T04:49:03.200Z,-1.51
2023-02-27T04:51:51.816Z,-1.52
2023-02-27T04:54:27.829Z,-1.54
2023-02-27T04:56:59.756Z,-1.53
2023-02-27T04:59:34.386Z,-1.53
2023-02-27T05:02:33.413Z,-1.55
2023-02-27T05:05:06.706Z,-1.55
2023-02-27T05:08:09.162Z,-1.56
2023-02-27T05:11:05.968Z,-1.56
2023-02-27T05:13:42.435Z,-1.53
2023-02-27T05:16:33.609Z,-1.50
2023-02-27T05:19:01.989Z,-1.47
2023-02-27T05:21:39.529Z,-1.42
2023-02-27T05:24:59.622Z,-1.41
2023-02-27T05:27:53.631Z,-1.44
2023-02-27T05:30:40.667Z,-1.47
2023-02-27T05:33:18.003Z,-1.49
2023-02-27T05:35:57.563Z,-1.48
2023-02-27T05:38:50.139Z,-1.44
2023-02-27T05:41:26.173Z,-1.41
2023-02-27T05:44:10.677Z,-1.39
2023-02-27T05:46:48.024Z,-1.40
2023-02-27T05:49:40.188Z,-1.43
2023-02-27T05:52:12.859Z,-1.43
2023-02-27T05:54:44.408Z,-1.45
2023-02-27T05:57:20.312Z,-1.47
2023-02-27T06:00:21.484Z,-1.41
2023-02-27T06:02:48.622Z,-1.36
2023-02-27T06:05:17.498Z,-1.32
2023-02-27T06:07:44.455Z,-1.31
2023-02-27T06:10:16.200Z,-1.24
2023-02-27T06:12:43.296Z,-1.19
2023-02-27T06:15:11.181Z,-1.17
2023-02-27T06:17:39.077Z,-1.16
2023-02-27T06:20:09.734Z,-1.14
2023-02-27T06:22:37.058Z,-1.09
2023-02-27T06:25:04.724Z,-1.05
2023-02-27T06:27:31.622Z,-1.03
2023-02-27T06:29:58.669Z,-0.97
2023-02-27T06:32:26.049Z,-0.92
2023-02-27T06:34:53.576Z,-0.87
2023-02-27T06:37:22.200Z,-0.81
2023-02-27T06:39:49.180Z,-0.69
2023-02-27T06:42:16.882Z,-0.59
2023-02-27T06:44:43.873Z,-0.43
2023-02-27T06:47:10.989Z,-0.26
2023-02-27T06:49:37.896Z,-0.12
2023-02-27T06:52:04.849Z,0.00
2023-02-27T06:54:31.921Z,0.11
2023-02-27T06:56:58.799Z,0.25
2023-02-27T06:59:25.738Z,0.31
2023-02-27T07:01:52.618Z,0.25
2023-02-27T07:04:19.603Z,0.18
2023-02-27T07:07:34.280Z,0.17
2023-02-27T07:09:34.208Z,0.15
2023-02-27T07:12:01.648Z,0.18
2023-02-27T07:14:28.799Z,0.23
2023-02-27T07:16:55.819Z,0.33
2023-02-27T07:19:24.334Z,0.41
2023-02-27T07:22:12.449Z,0.46
2023-02-27T07:25:03.020Z,0.53
2023-02-27T07:27:46.121Z,0.61
2023-02-27T07:30:28.254Z,0.65
2023-02-27T07:33:11.924Z,0.73
2023-02-27T07:35:49.205Z,0.78
2023-02-27T07:38:27.161Z,0.81
2023-02-27T07:41:15.880Z,0.80
2023-02-27T07:47:29.601Z,0.90
2023-02-27T07:50:20.705Z,1.00
2023-02-27T07:52:57.192Z,1.05
2023-02-27T07:55:28.416Z,1.15
2023-02-27T07:58:29.414Z,1.27
2023-02-27T08:00:59.863Z,1.40
2023-02-27T08:03:32.114Z,1.50
2023-02-27T08:06:04.123Z,1.53
2023-02-27T08:09:27.861Z,1.58
2023-02-27T08:12:23.210Z,1.73
2023-02-27T08:15:04.187Z,1.88
2023-02-27T08:17:35.434Z,2.06
2023-02-27T08:20:05.188Z,2.30
2023-02-27T08:22:39.117Z,2.46
2023-02-27T08:25:17.564Z,2.55
2023-02-27T08:28:03.794Z,2.66
2023-02-27T08:30:45.761Z,2.74
2023-02-27T08:33:23.324Z,2.87
2023-02-27T08:36:31.248Z,3.01
2023-02-27T08:39:12.309Z,3.25
2023-02-27T08:42:19.302Z,3.39
2023-02-27T08:44:52.287Z,3.60
2023-02-27T08:47:37.704Z,3.80
2023-02-27T08:50:10.897Z,4.08
2023-02-27T08:53:07.704Z,4.37
2023-02-27T08:55:56.858Z,4.60
2023-02-27T08:58:31.090Z,4.99
2023-02-27T09:01:18.474Z,5.55
2023-02-27T09:03:54.144Z,6.25
2023-02-27T09:07:16.882Z,6.88
2023-02-27T09:09:44.385Z,7.28
2023-02-27T09:15:22.818Z,7.32
2023-02-27T09:18:06.210Z,7.28
2023-02-27T09:20:49.378Z,7.24
2023-02-27T09:23:41.273Z,7.26
2023-02-27T09:26:12.494Z,7.36
2023-02-27T09:28:45.041Z,7.51
2023-02-27T09:34:09.313Z,7.88
2023-02-27T09:36:39.209Z,7.92
2023-02-27T09:39:12.934Z,7.76
2023-02-27T09:42:55.185Z,7.09
2023-02-27T09:45:39.721Z,6.71
2023-02-27T09:48:25.656Z,6.61
2023-02-27T09:51:39.849Z,6.63
2023-02-27T09:54:28.006Z,6.61
2023-02-27T09:58:33.724Z,6.75
2023-02-27T10:06:01.703Z,6.90
2023-02-27T10:08:39.962Z,6.92
2023-02-27T10:11:44.223Z,6.92
2023-02-27T10:15:08.944Z,7.02
2023-02-27T10:17:54.975Z,7.03
2023-02-27T10:20:39.485Z,7.11
2023-02-27T10:32:25.644Z,7.62
2023-02-27T10:35:14.341Z,7.59
2023-02-27T10:37:57.888Z,7.58
2023-02-27T10:40:28.566Z,7.47
2023-02-27T10:43:07.562Z,7.38
2023-02-27T10:45:46.459Z,7.35
2023-02-27T10:48:37.250Z,7.38
2023-02-27T10:51:41.730Z,7.46
2023-02-27T10:54:56.366Z,7.39
2023-02-27T10:57:50.220Z,7.36
2023-02-27T11:00:50.160Z,7.44
2023-02-27T11:03:36.362Z,7.29
2023-02-27T11:06:31.445Z,7.36
2023-02-27T11:09:31.199Z,7.55
2023-02-27T11:12:26.691Z,7.66
2023-02-27T11:15:28.941Z,7.56
2023-02-27T11:18:20.600Z,7.64
2023-02-27T11:20:55.286Z,7.71
2023-02-27T11:23:25.920Z,7.66
2023-02-27T11:26:25.330Z,7.41
2023-02-27T11:29:18.779Z,7.25
2023-02-27T11:32:21.445Z,6.97
2023-02-27T11:35:03.695Z,6.85
2023-02-27T11:38:25.690Z,6.57
2023-02-27T11:41:04.676Z,6.35
2023-02-27T11:43:58.471Z,6.14
2023-02-27T11:46:48.009Z,6.00
2023-02-27T11:49:44.682Z,5.94
2023-02-27T11:52:49.517Z,6.08
2023-02-27T11:55:28.416Z,6.12
2023-02-27T11:58:34.489Z,6.19
2023-02-27T12:01:18.201Z,6.25
2023-02-27T12:04:17.688Z,6.28
2023-02-27T12:07:13.955Z,6.42
2023-02-27T12:13:59.576Z,6.44
2023-02-27T12:17:04.990Z,6.30
2023-02-27T12:19:48.974Z,6.23
2023-02-27T12:22:38.230Z,6.11
2023-02-27T12:25:19.969Z,6.11
2023-02-27T12:28:00.244Z,6.14
2023-02-27T12:30:36.574Z,6.16
2023-02-27T12:33:49.267Z,5.99
2023-02-27T12:36:17.090Z,5.92
2023-02-27T12:38:48.865Z,5.94
2023-02-27T12:41:33.631Z,5.98
2023-02-27T12:44:57.765Z,5.89
2023-02-27T12:48:02.065Z,5.79
2023-02-27T12:51:20.388Z,5.82
2023-02-27T12:54:27.903Z,5.75
2023-02-27T12:57:15.865Z,5.74
2023-02-27T13:00:21.183Z,5.71
2023-02-27T13:03:30.932Z,5.76
2023-02-27T13:06:41.219Z,5.91
2023-02-27T13:10:00.406Z,6.01
2023-02-27T13:13:30.266Z,5.97
2023-02-27T13:16:23.108Z,5.89
2023-02-27T13:19:16.599Z,5.81
2023-02-27T13:22:04.449Z,5.86
2023-02-27T13:24:34.252Z,5.81
2023-02-27T13:27:33.505Z,5.73
2023-02-27T13:30:10.630Z,5.74
2023-02-27T13:33:07.110Z,5.77
2023-02-27T13:36:18.870Z,5.81
2023-02-27T13:38:55.756Z,5.77
2023-02-27T13:41:28.185Z,5.74
2023-02-27T13:44:20.471Z,5.76
2023-02-27T13:46:47.874Z,5.70
2023-02-27T13:52:37.356Z,5.45
2023-02-27T13:55:29.252Z,5.31
2023-02-27T13:58:00.331Z,5.35
2023-02-27T14:00:33.671Z,5.42
2023-02-27T14:03:23.483Z,5.53
2023-02-27T14:05:56.021Z,5.42
2023-02-27T14:08:30.058Z,5.49
2023-02-27T14:11:30.829Z,5.54
2023-02-27T14:14:03.162Z,5.58
2023-02-27T14:16:42.640Z,5.58
2023-02-27T14:19:16.287Z,5.62
2023-02-27T14:22:04.134Z,5.70
2023-02-27T14:25:01.745Z,5.78
2023-02-27T14:27:49.080Z,5.78
2023-02-27T14:30:36.863Z,5.70
2023-02-27T14:33:19.493Z,5.64
2023-02-27T14:36:29.140Z,5.58
2023-02-27T14:39:02.238Z,5.52
2023-02-27T14:41:53.563Z,5.52
2023-02-27T14:44:43.271Z,5.51
2023-02-27T14:48:04.769Z,5.41
2023-02-27T14:50:47.582Z,5.36
2023-02-27T14:53:33.434Z,5.20
2023-02-27T14:56:07.033Z,5.10
2023-02-27T14:58:37.872Z,5.11
2023-02-27T15:01:11.825Z,5.09
2023-02-27T15:04:01.649Z,5.05
2023-02-27T15:06:47.431Z,5.07
2023-02-27T15:09:44.929Z,4.99
2023-02-27T15:12:45.448Z,4.92
2023-02-27T15:15:41.770Z,4.88
2023-02-27T15:18:23.421Z,4.83
2023-02-27T15:21:05.036Z,4.80
2023-02-27T15:23:54.060Z,4.79
2023-02-27T15:26:36.888Z,4.76
2023-02-27T15:29:24.434Z,4.73
2023-02-27T15:32:43.702Z,4.69
2023-02-27T15:35:36.651Z,4.68
2023-02-27T15:38:41.088Z,4.71
2023-02-27T15:41:47.792Z,4.75
2023-02-27T15:44:56.576Z,4.81
2023-02-27T15:47:43.911Z,4.83
2023-02-27T15:50:18.597Z,4.78
2023-02-27T15:53:25.206Z,4.76
2023-02-27T15:56:20.322Z,4.76
2023-02-27T15:59:13.324Z,4.69
2023-02-27T16:02:08.940Z,4.63
2023-02-27T16:04:51.317Z,4.60
2023-02-27T16:07:25.142Z,4.55
2023-02-27T16:10:01.456Z,4.50
2023-02-27T16:12:44.388Z,4.49
2023-02-27T16:15:40.466Z,4.51
2023-02-27T16:18:53.239Z,4.49
2023-02-27T16:24:45.398Z,4.42
2023-02-27T16:28:02.590Z,4.36
2023-02-27T16:31:14.117Z,4.35
2023-02-27T16:33:50.926Z,4.34
2023-02-27T16:36:27.017Z,4.30
2023-02-27T16:39:20.405Z,4.29
2023-02-27T16:42:29.444Z,4.29
2023-02-27T16:45:02.705Z,4.31
2023-02-27T16:47:42.150Z,4.30
2023-02-27T16:50:51.337Z,4.35
2023-02-27T16:53:34.959Z,4.34
2023-02-27T16:56:06.090Z,4.34
2023-02-27T16:58:42.346Z,4.33
2023-02-27T17:01:24.018Z,4.33
2023-02-27T17:04:01.353Z,4.31
2023-02-27T17:06:33.121Z,4.30
2023-02-27T17:09:03.238Z,4.28
2023-02-27T17:11:34.872Z,4.27
2023-02-27T17:14:17.511Z,4.27
2023-02-27T17:17:01.699Z,4.25
2023-02-27T17:19:34.836Z,4.27
2023-02-27T17:22:03.504Z,4.26
2023-02-27T17:24:34.237Z,4.27
2023-02-27T17:27:13.955Z,4.25
2023-02-27T17:30:02.022Z,4.26
2023-02-27T17:32:34.634Z,4.25
2023-02-27T17:35:14.012Z,4.25
2023-02-27T17:37:55.935Z,4.27
2023-02-27T17:40:32.356Z,4.27
2023-02-27T17:43:05.605Z,4.27
2023-02-27T17:45:59.299Z,4.23
2023-02-27T17:48:27.548Z,4.19
2023-02-27T17:50:54.925Z,4.19
2023-02-27T17:53:41.715Z,4.19
2023-02-27T17:56:16.133Z,4.20
2023-02-27T17:58:49.746Z,4.18
2023-02-27T18:01:46.214Z,4.14
2023-02-27T18:04:32.753Z,4.12
2023-02-27T18:07:11.127Z,4.10
2023-02-27T18:09:39.264Z,4.06
2023-02-27T18:12:16.633Z,4.04
2023-02-27T18:14:52.320Z,3.98
2023-02-27T18:17:36.574Z,3.93
2023-02-27T18:20:17.029Z,3.92
2023-02-27T18:22:59.269Z,3.90
2023-02-27T18:25:42.614Z,3.94
2023-02-27T18:28:23.228Z,3.92
2023-02-27T18:30:59.262Z,3.95
2023-02-27T18:33:32.473Z,3.99
2023-02-27T18:36:09.454Z,3.98
2023-02-27T18:38:54.727Z,4.00
2023-02-27T18:41:26.488Z,4.00
2023-02-27T18:44:12.366Z,4.02
2023-02-27T18:46:40.730Z,4.04
2023-02-27T18:49:16.609Z,4.04
2023-02-27T18:51:47.653Z,4.02
2023-02-27T18:54:24.732Z,4.04
2023-02-27T18:56:56.840Z,4.06
2023-02-27T18:59:30.189Z,4.07
2023-02-27T19:02:08.555Z,4.02
2023-02-27T19:04:43.315Z,4.01
2023-02-27T19:07:14.146Z,3.95
2023-02-27T19:09:45.388Z,3.85
2023-02-27T19:15:28.714Z,3.71
2023-02-27T19:18:02.208Z,3.67
2023-02-27T19:20:30.147Z,3.64
2023-02-27T19:22:58.404Z,3.61
2023-02-27T19:25:50.810Z,3.59
2023-02-27T19:28:25.524Z,3.55
2023-02-27T19:31:10.928Z,3.54
2023-02-27T19:33:55.898Z,3.52
2023-02-27T19:36:25.368Z,3.53
2023-02-27T19:38:59.141Z,3.53
2023-02-27T19:41:40.128Z,3.52
2023-02-27T19:44:23.390Z,3.53
2023-02-27T19:46:54.078Z,3.53
2023-02-27T19:49:24.946Z,3.51
2023-02-27T19:51:53.507Z,3.48
2023-02-27T19:54:21.313Z,3.47
2023-02-27T19:56:58.169Z,3.43
2023-02-27T19:59:33.832Z,3.43
2023-02-27T20:02:00.886Z,3.41
2023-02-27T20:04:28.114Z,3.39
2023-02-27T20:06:55.122Z,3.38
2023-02-27T20:09:23.286Z,3.36
2023-02-27T20:11:56.833Z,3.33
2023-02-27T20:14:24.016Z,3.30
2023-02-27T20:16:52.835Z,3.28
2023-02-27T20:19:20.613Z,3.26
2023-02-27T20:21:48.795Z,3.24
2023-02-27T20:24:18.093Z,3.21
2023-02-27T20:26:57.817Z,3.17
2023-02-27T20:29:27.261Z,3.16
2023-02-27T20:31:55.796Z,3.17
2023-02-27T20:34:26.763Z,3.18
2023-02-27T20:36:55.781Z,3.19
2023-02-27T20:39:23.620Z,3.22
2023-02-27T20:41:50.593Z,3.25
2023-02-27T20:44:17.595Z,3.25
2023-02-27T20:46:44.699Z,3.28
2023-02-27T20:49:15.574Z,3.31
2023-02-27T20:51:43.613Z,3.34
2023-02-27T20:54:16.677Z,3.36
2023-02-27T20:56:44.169Z,3.38
2023-02-27T20:59:15.432Z,3.36
2023-02-27T21:01:51.143Z,3.34
2023-02-27T21:04:42.532Z,3.36
2023-02-27T21:07:16.327Z,3.37
2023-02-27T21:09:44.531Z,3.37
2023-02-27T21:12:12.234Z,3.36
2023-02-27T21:14:39.523Z,3.35
2023-02-27T21:17:07.375Z,3.34
2023-02-27T21:19:34.461Z,3.33
2023-02-27T21:22:01.499Z,3.32
2023-02-27T21:24:32.148Z,3.30
2023-02-27T21:26:59.763Z,3.29
2023-02-27T21:29:26.696Z,3.29
2023-02-27T21:31:53.832Z,3.28
2023-02-27T21:34:27.944Z,3.27
2023-02-27T21:36:55.747Z,3.26
2023-02-27T21:39:26.372Z,3.22
2023-02-27T21:41:54.112Z,3.18
2023-02-27T21:44:26.787Z,3.17
2023-02-27T21:46:54.397Z,3.19
2023-02-27T21:49:27.656Z,3.21
2023-02-27T21:51:55.249Z,3.20
2023-02-27T21:54:22.644Z,3.18
2023-02-27T21:56:50.351Z,3.16
2023-02-27T21:59:19.023Z,3.14
2023-02-27T22:01:47.583Z,3.11
2023-02-27T22:04:16.571Z,3.11
2023-02-27T22:06:44.268Z,3.10
2023-02-27T22:09:11.410Z,3.07
2023-02-27T22:11:40.832Z,3.06
2023-02-27T22:14:09.625Z,3.06
2023-02-27T22:16:37.063Z,3.05
2023-02-27T22:19:19.879Z,3.01
2023-02-27T22:21:47.625Z,3.00
2023-02-27T22:24:14.845Z,2.99
2023-02-27T22:26:42.585Z,2.95
2023-02-27T22:29:09.553Z,2.90
2023-02-27T22:31:38.530Z,2.88
2023-02-27T22:34:11.990Z,2.86
2023-02-27T22:36:39.320Z,2.83
2023-02-27T22:39:06.745Z,2.81
2023-02-27T22:41:37.852Z,2.83
2023-02-27T22:44:05.556Z,2.84
2023-02-27T22:46:45.720Z,2.82
2023-02-27T22:49:20.522Z,2.81
2023-02-27T22:51:50.802Z,2.78
2023-02-27T22:54:20.978Z,2.77
2023-02-27T22:56:51.448Z,2.74
2023-02-27T22:59:18.373Z,2.74
2023-02-27T23:01:45.475Z,2.74
2023-02-27T23:04:12.451Z,2.74
2023-02-27T23:06:40.911Z,2.76
2023-02-27T23:09:20.114Z,2.75
2023-02-27T23:11:47.184Z,2.77
2023-02-27T23:14:15.022Z,2.83
2023-02-27T23:16:46.550Z,2.86
2023-02-27T23:19:20.495Z,2.88
2023-02-27T23:21:47.610Z,2.90
2023-02-27T23:24:18.180Z,2.89
2023-02-27T23:26:49.298Z,2.91
2023-02-27T23:29:16.416Z,2.94
2023-02-27T23:31:43.418Z,2.97
2023-02-27T23:34:10.867Z,2.98
2023-02-27T23:36:38.597Z,2.96
2023-02-27T23:39:07.872Z,2.95
2023-02-27T23:41:35.353Z,2.93
2023-02-27T23:44:03.358Z,2.92
2023-02-27T23:46:30.989Z,2.90
2023-02-27T23:49:02.088Z,2.89
2023-02-27T23:51:30.842Z,2.89
2023-02-27T23:53:58.865Z,2.89
2023-02-27T23:56:31.181Z,2.91
2023-02-27T23:59:03.407Z,2.92
